createdAt,value
2019-05-07T00:00:49.903Z,3.24
2019-05-07T00:03:18.260Z,3.16
2019-05-07T00:05:46.692Z,3.04
2019-05-07T00:08:15.094Z,3.10
2019-05-07T00:10:43.423Z,3.07
2019-05-07T00:13:12.864Z,2.93
2019-05-07T00:16:46.287Z,2.73
2019-05-07T00:19:14.631Z,2.59
2019-05-07T00:21:42.996Z,2.54
2019-05-07T00:24:13.211Z,2.50
2019-05-07T00:29:14.024Z,2.53
2019-05-07T00:31:43.389Z,2.63
2019-05-07T00:34:12.598Z,2.57
2019-05-07T00:39:36.801Z,2.64
2019-05-07T00:45:17.888Z,2.71
2019-05-07T00:47:38.722Z,2.69
2019-05-07T00:50:07.813Z,2.69
2019-05-07T00:52:36.150Z,2.65
2019-05-07T00:55:04.499Z,2.60
2019-05-07T00:57:32.844Z,2.55
2019-05-07T01:00:02.205Z,2.50
2019-05-07T01:02:29.507Z,2.43
2019-05-07T01:04:57.888Z,2.40
2019-05-07T01:07:26.246Z,2.35
2019-05-07T01:09:54.616Z,2.33
2019-05-07T01:12:22.940Z,2.23
2019-05-07T01:14:52.873Z,2.19
2019-05-07T01:17:19.621Z,2.17
2019-05-07T01:19:48.218Z,2.19
2019-05-07T01:22:16.571Z,2.19
2019-05-07T01:24:45.870Z,2.12
2019-05-07T01:27:14.249Z,2.11
2019-05-07T01:29:43.082Z,2.08
2019-05-07T01:32:13.348Z,2.04
2019-05-07T01:34:42.944Z,2.02
2019-05-07T01:37:12.423Z,2.01
2019-05-07T01:39:39.415Z,2.00
2019-05-07T01:42:07.944Z,2.02
2019-05-07T01:44:36.432Z,2.06
2019-05-07T01:47:04.917Z,2.03
2019-05-07T01:49:33.335Z,1.99
2019-05-07T01:52:03.682Z,1.99
2019-05-07T01:54:33.255Z,1.97
2019-05-07T01:57:02.826Z,2.00
2019-05-07T01:59:31.971Z,2.02
2019-05-07T02:01:58.183Z,2.01
2019-05-07T02:04:26.517Z,2.00
2019-05-07T02:07:02.698Z,1.95
2019-05-07T02:09:39.674Z,1.98
2019-05-07T02:14:42.365Z,1.93
2019-05-07T02:17:13.466Z,1.90
2019-05-07T02:19:42.360Z,1.78
2019-05-07T02:22:08.249Z,1.66
2019-05-07T02:24:36.623Z,1.69
2019-05-07T02:27:05.000Z,1.71
2019-05-07T02:29:33.319Z,1.70
2019-05-07T02:32:04.618Z,1.71
2019-05-07T02:34:30.017Z,1.58
2019-05-07T02:36:58.370Z,1.48
2019-05-07T02:39:33.308Z,1.39
2019-05-07T02:41:59.537Z,1.35
2019-05-07T02:44:27.906Z,1.39
2019-05-07T02:46:58.700Z,1.45
2019-05-07T02:49:28.273Z,1.39
2019-05-07T02:52:13.633Z,1.42
2019-05-07T02:54:46.964Z,1.48
2019-05-07T02:57:17.091Z,1.43
2019-05-07T03:02:18.848Z,1.27
2019-05-07T03:04:47.211Z,0.91
2019-05-07T03:07:15.694Z,0.71
2019-05-07T03:09:44.038Z,0.58
2019-05-07T03:12:13.142Z,0.53
2019-05-07T03:14:43.541Z,0.51
2019-05-07T03:17:09.096Z,0.47
2019-05-07T03:19:37.466Z,0.37
2019-05-07T03:24:58.201Z,0.63
2019-05-07T03:27:26.551Z,0.49
2019-05-07T03:29:55.813Z,0.43
2019-05-07T03:32:29.122Z,0.34
2019-05-07T03:34:58.286Z,0.22
2019-05-07T03:37:25.785Z,0.27
2019-05-07T03:39:54.125Z,0.27
2019-05-07T03:42:23.573Z,0.32
2019-05-07T03:44:53.879Z,0.28
2019-05-07T03:47:38.424Z,0.31
2019-05-07T03:50:06.760Z,0.34
2019-05-07T03:52:35.105Z,0.53
2019-05-07T03:55:03.946Z,0.59
2019-05-07T03:57:33.348Z,0.69
2019-05-07T04:00:03.931Z,0.77
2019-05-07T04:05:04.874Z,0.81
2019-05-07T04:07:34.205Z,0.70
2019-05-07T04:12:36.826Z,0.87
2019-05-07T04:15:05.166Z,0.60
2019-05-07T04:17:34.105Z,0.52
2019-05-07T04:20:04.587Z,0.53
2019-05-07T04:22:30.255Z,0.64
2019-05-07T04:25:13.120Z,0.63
2019-05-07T04:27:47.118Z,0.75
2019-05-07T04:30:13.142Z,0.75
2019-05-07T04:32:43.838Z,0.87
2019-05-07T04:35:12.715Z,0.87
2019-05-07T04:37:42.747Z,0.96
2019-05-07T04:40:09.099Z,1.05
2019-05-07T04:42:37.483Z,1.17
2019-05-07T04:45:06.792Z,1.25
2019-05-07T04:47:42.892Z,1.38
2019-05-07T04:50:03.981Z,1.61
2019-05-07T04:52:35.032Z,1.77
2019-05-07T04:55:05.144Z,1.89
2019-05-07T04:57:33.471Z,1.92
2019-05-07T05:00:03.311Z,2.00
2019-05-07T05:02:34.398Z,2.12
2019-05-07T05:05:03.726Z,2.24
2019-05-07T05:07:33.471Z,2.31
2019-05-07T05:10:02.788Z,2.43
2019-05-07T05:12:28.672Z,2.52
2019-05-07T05:14:57.013Z,2.61
2019-05-07T05:17:25.417Z,2.73
2019-05-07T05:19:54.706Z,2.86
2019-05-07T05:25:22.741Z,3.06
2019-05-07T05:27:52.362Z,3.19
2019-05-07T05:30:22.034Z,3.30
2019-05-07T05:32:52.033Z,3.43
2019-05-07T05:35:18.677Z,3.51
2019-05-07T05:40:22.687Z,3.76
2019-05-07T05:45:44.245Z,4.16
2019-05-07T05:48:13.580Z,4.37
2019-05-07T05:50:57.637Z,4.53
2019-05-07T05:53:36.674Z,4.65
2019-05-07T05:56:06.028Z,4.90
2019-05-07T05:58:39.934Z,5.04
2019-05-07T06:01:13.117Z,5.27
2019-05-07T06:06:38.335Z,5.51
2019-05-07T06:09:12.922Z,5.68
2019-05-07T06:14:38.305Z,6.04
2019-05-07T06:17:22.288Z,6.11
2019-05-07T06:24:58.924Z,6.74
2019-05-07T06:27:28.208Z,6.76
2019-05-07T06:29:57.592Z,6.80
2019-05-07T06:32:26.004Z,6.90
2019-05-07T06:34:54.356Z,7.01
2019-05-07T06:37:22.970Z,7.20
2019-05-07T06:40:03.801Z,7.25
2019-05-07T06:42:43.867Z,7.48
2019-05-07T06:47:46.513Z,7.83
2019-05-07T06:50:14.881Z,7.69
2019-05-07T06:52:43.265Z,7.83
2019-05-07T06:55:12.210Z,8.01
2019-05-07T06:57:39.960Z,8.07
2019-05-07T07:00:19.950Z,8.22
2019-05-07T07:02:52.498Z,8.43
2019-05-07T07:05:23.455Z,8.13
2019-05-07T07:07:48.771Z,8.41
2019-05-07T07:10:22.722Z,8.20
2019-05-07T07:12:52.873Z,7.96
2019-05-07T07:15:19.480Z,8.48
2019-05-07T07:17:52.489Z,8.68
2019-05-07T07:20:21.854Z,8.74
2019-05-07T07:22:48.975Z,8.77
2019-05-07T07:25:17.317Z,8.71
2019-05-07T07:27:45.827Z,8.83
2019-05-07T07:32:48.432Z,9.23
2019-05-07T07:37:52.970Z,9.19
2019-05-07T07:43:15.729Z,9.36
2019-05-07T07:45:44.069Z,9.37
2019-05-07T07:48:13.224Z,9.45
2019-05-07T07:50:42.119Z,8.77
2019-05-07T07:53:09.078Z,8.65
2019-05-07T07:55:37.424Z,8.91
2019-05-07T07:58:05.757Z,8.89
2019-05-07T08:00:36.782Z,9.13
2019-05-07T08:03:06.099Z,9.13
2019-05-07T08:05:34.462Z,9.42
2019-05-07T08:10:37.034Z,9.87
2019-05-07T08:13:05.433Z,10.56
2019-05-07T08:15:35.655Z,11.04
2019-05-07T08:18:03.989Z,11.03
2019-05-07T08:23:09.631Z,11.74
2019-05-07T08:28:12.284Z,12.61
2019-05-07T08:30:42.013Z,12.97
2019-05-07T08:33:09.801Z,13.38
2019-05-07T08:35:37.376Z,13.63
2019-05-07T08:38:05.728Z,14.01
2019-05-07T08:40:35.051Z,14.22
2019-05-07T08:45:43.398Z,14.16
2019-05-07T08:48:12.592Z,14.26
2019-05-07T08:50:41.842Z,14.05
2019-05-07T08:53:08.321Z,14.27
2019-05-07T08:55:37.620Z,14.17
2019-05-07T09:00:41.804Z,14.18
2019-05-07T09:03:19.327Z,14.35
2019-05-07T09:05:37.058Z,14.32
2019-05-07T09:08:05.404Z,14.21
2019-05-07T09:10:33.877Z,13.27
2019-05-07T09:13:02.820Z,14.48
2019-05-07T09:15:32.081Z,14.94
2019-05-07T09:17:58.981Z,14.85
2019-05-07T09:20:27.319Z,15.58
2019-05-07T09:22:55.666Z,16.04
2019-05-07T09:28:02.635Z,17.89
2019-05-07T09:30:29.658Z,17.95
2019-05-07T09:35:34.672Z,19.95
2019-05-07T09:38:03.292Z,19.00
2019-05-07T09:40:32.046Z,18.61
2019-05-07T09:42:59.835Z,20.77
2019-05-07T09:45:28.240Z,21.70
2019-05-07T09:47:56.608Z,21.93
2019-05-07T09:52:59.143Z,21.69
2019-05-07T09:55:27.523Z,22.46
2019-05-07T10:00:32.009Z,20.77
2019-05-07T10:02:58.532Z,20.87
2019-05-07T10:05:26.876Z,20.65
2019-05-07T10:07:55.241Z,18.36
2019-05-07T10:10:23.599Z,20.20
2019-05-07T10:12:52.530Z,23.21
2019-05-07T10:15:22.549Z,21.84
2019-05-07T10:17:55.132Z,24.11
2019-05-07T10:20:23.526Z,19.79
2019-05-07T10:22:52.066Z,21.08
2019-05-07T10:25:22.270Z,23.89
2019-05-07T10:27:48.653Z,24.27
2019-05-07T10:30:17.984Z,20.76
2019-05-07T10:32:46.341Z,18.35
2019-05-07T10:35:14.745Z,18.29
2019-05-07T10:37:43.140Z,19.38
2019-05-07T10:40:12.309Z,18.27
2019-05-07T10:42:39.936Z,19.51
2019-05-07T10:45:13.110Z,18.72
2019-05-07T10:50:34.920Z,24.72
2019-05-07T10:52:48.662Z,25.12
2019-05-07T10:55:17.006Z,27.50
2019-05-07T10:57:45.353Z,25.06
2019-05-07T11:00:13.709Z,28.37
2019-05-07T11:02:42.584Z,26.71
2019-05-07T11:05:12.761Z,29.16
2019-05-07T11:07:38.845Z,27.17
2019-05-07T11:10:07.216Z,24.40
2019-05-07T11:12:35.588Z,23.26
2019-05-07T11:15:03.980Z,22.94
2019-05-07T11:20:12.229Z,23.65
2019-05-07T11:22:40.128Z,22.42
2019-05-07T11:25:09.403Z,25.59
2019-05-07T11:27:37.790Z,25.78
2019-05-07T11:30:06.782Z,28.21
2019-05-07T11:32:35.204Z,21.87
2019-05-07T11:35:03.564Z,22.75
2019-05-07T11:37:31.975Z,23.51
2019-05-07T11:40:03.010Z,22.72
2019-05-07T11:42:29.571Z,23.23
2019-05-07T11:44:57.931Z,28.25
2019-05-07T11:50:05.869Z,25.88
2019-05-07T11:55:12.049Z,26.64
2019-05-07T11:57:38.944Z,26.82
2019-05-07T12:00:07.284Z,30.28
2019-05-07T12:02:36.006Z,29.46
2019-05-07T12:05:04.359Z,31.13
2019-05-07T12:07:32.870Z,31.68
2019-05-07T12:10:04.776Z,30.67
2019-05-07T12:15:03.848Z,28.98
2019-05-07T12:17:32.197Z,31.30
2019-05-07T12:20:02.420Z,28.61
2019-05-07T12:22:34.676Z,29.84
2019-05-07T12:25:03.027Z,29.52
2019-05-07T12:27:32.397Z,28.92
2019-05-07T12:30:00.723Z,26.52
2019-05-07T12:35:03.460Z,27.99
2019-05-07T12:37:32.059Z,29.04
2019-05-07T12:40:01.866Z,28.20
2019-05-07T12:42:28.679Z,28.36
2019-05-07T12:44:57.096Z,27.68
2019-05-07T12:47:25.466Z,30.72
2019-05-07T12:49:53.819Z,30.94
2019-05-07T12:52:22.796Z,30.19
2019-05-07T12:54:52.342Z,28.92
2019-05-07T12:57:19.065Z,22.68
2019-05-07T12:59:49.613Z,19.94
2019-05-07T13:02:33.258Z,20.64
2019-05-07T13:04:44.993Z,20.16
2019-05-07T13:07:14.276Z,22.80
2019-05-07T13:09:42.865Z,25.48
2019-05-07T13:17:19.618Z,27.22
2019-05-07T13:19:47.962Z,27.61
2019-05-07T13:22:16.334Z,27.66
2019-05-07T13:27:19.048Z,28.41
2019-05-07T13:29:47.500Z,28.20
2019-05-07T13:32:15.838Z,28.87
2019-05-07T13:34:44.184Z,22.89
2019-05-07T13:37:14.728Z,24.87
2019-05-07T13:39:53.737Z,27.33
2019-05-07T13:42:27.601Z,25.18
2019-05-07T13:47:34.279Z,26.84
2019-05-07T13:50:02.832Z,25.17
2019-05-07T13:52:32.760Z,25.14
2019-05-07T13:54:59.406Z,25.25
2019-05-07T13:57:27.762Z,24.52
2019-05-07T13:59:56.132Z,24.21
2019-05-07T14:02:24.927Z,23.15
2019-05-07T14:07:27.598Z,23.05
2019-05-07T14:09:55.952Z,23.16
2019-05-07T14:12:24.298Z,23.48
2019-05-07T14:17:26.951Z,22.40
2019-05-07T14:19:55.331Z,22.78
2019-05-07T14:22:23.705Z,22.47
2019-05-07T14:24:53.015Z,25.06
2019-05-07T14:29:54.837Z,27.57
2019-05-07T14:32:24.994Z,30.05
2019-05-07T14:34:58.975Z,27.97
2019-05-07T14:37:27.420Z,28.54
2019-05-07T14:39:55.789Z,29.23
2019-05-07T14:42:24.167Z,29.74
2019-05-07T14:47:27.097Z,29.55
2019-05-07T14:49:57.432Z,30.65
2019-05-07T14:52:32.145Z,29.98
2019-05-07T14:57:28.493Z,29.80
2019-05-07T14:59:56.846Z,30.17
2019-05-07T15:02:25.195Z,29.50
2019-05-07T15:04:53.561Z,32.03
2019-05-07T15:07:22.620Z,30.42
2019-05-07T15:09:51.886Z,30.92
2019-05-07T15:12:18.678Z,31.45
2019-05-07T15:17:22.311Z,29.55
2019-05-07T15:19:52.109Z,30.26
2019-05-07T15:22:21.934Z,28.55
2019-05-07T15:24:52.379Z,28.37
2019-05-07T15:27:18.662Z,29.90
2019-05-07T15:29:47.044Z,30.22
2019-05-07T15:32:15.388Z,28.61
2019-05-07T15:34:43.745Z,30.62
2019-05-07T15:37:12.350Z,28.45
2019-05-07T15:42:17.893Z,26.90
2019-05-07T15:44:46.235Z,25.05
2019-05-07T15:47:14.602Z,26.03
2019-05-07T15:49:42.983Z,26.30
2019-05-07T15:52:14.693Z,27.17
2019-05-07T15:54:43.163Z,28.99
2019-05-07T15:57:12.669Z,29.21
2019-05-07T15:59:41.802Z,28.47
2019-05-07T16:02:08.960Z,29.34
2019-05-07T16:04:37.297Z,30.37
2019-05-07T16:07:05.664Z,29.58
2019-05-07T16:09:41.727Z,29.86
2019-05-07T16:12:07.933Z,29.79
2019-05-07T16:58:05.411Z,16.53
2019-05-07T17:00:37.159Z,16.28
2019-05-07T17:08:19.477Z,15.59
2019-05-07T17:10:47.825Z,15.27
2019-05-07T17:15:55.898Z,15.02
2019-05-07T17:18:24.248Z,15.00
2019-05-07T17:20:52.599Z,14.27
2019-05-07T17:23:22.630Z,14.09
2019-05-07T17:25:49.408Z,14.12
2019-05-07T17:28:17.788Z,13.69
2019-05-07T17:30:46.139Z,14.28
2019-05-07T17:33:14.480Z,14.05
2019-05-07T17:35:42.834Z,13.86
2019-05-07T17:38:12.862Z,13.72
2019-05-07T17:40:39.526Z,13.49
2019-05-07T17:43:07.898Z,13.44
2019-05-07T17:45:36.236Z,13.23
2019-05-07T17:48:04.600Z,13.11
2019-05-07T17:50:34.835Z,13.14
2019-05-07T17:53:03.189Z,13.17
2019-05-07T17:55:33.165Z,12.85
2019-05-07T17:58:01.883Z,12.89
2019-05-07T18:00:28.291Z,12.60
2019-05-07T18:03:02.604Z,12.29
2019-05-07T18:08:04.715Z,11.89
2019-05-07T18:10:33.081Z,11.96
2019-05-07T18:13:01.461Z,12.10
2019-05-07T18:15:32.236Z,11.83
2019-05-07T18:18:00.882Z,11.64
2019-05-07T18:23:06.892Z,11.35
2019-05-07T18:25:33.791Z,11.28
2019-05-07T18:28:02.153Z,11.06
2019-05-07T18:30:32.546Z,11.01
2019-05-07T18:35:55.300Z,10.66
2019-05-07T18:38:29.853Z,10.59
2019-05-07T18:40:58.185Z,10.43
2019-05-07T18:43:29.888Z,10.22
2019-05-07T18:45:58.220Z,10.03
2019-05-07T18:48:27.474Z,10.00
2019-05-07T18:51:02.674Z,9.88
2019-05-07T18:53:31.768Z,10.02
2019-05-07T18:56:17.248Z,9.80
2019-05-07T18:59:03.119Z,9.75
2019-05-07T19:01:32.666Z,9.62
2019-05-07T19:04:01.929Z,9.56
2019-05-07T19:06:28.181Z,9.45
2019-05-07T19:08:56.556Z,9.46
2019-05-07T19:14:05.888Z,9.38
2019-05-07T19:16:34.252Z,9.30
2019-05-07T19:19:02.592Z,9.27
2019-05-07T19:21:32.002Z,9.13
2019-05-07T19:26:33.603Z,9.21
2019-05-07T19:29:05.524Z,9.14
2019-05-07T19:32:58.533Z,9.21
2019-05-07T19:35:26.861Z,9.13
2019-05-07T19:37:56.125Z,9.05
2019-05-07T19:40:24.472Z,8.98
2019-05-07T19:42:52.824Z,8.83
2019-05-07T19:45:24.209Z,8.70
2019-05-07T19:47:49.501Z,8.73
2019-05-07T19:50:17.867Z,8.47
2019-05-07T19:52:46.204Z,8.46
2019-05-07T19:55:14.546Z,7.99
2019-05-07T19:57:44.238Z,7.88
2019-05-07T20:00:12.586Z,7.77
2019-05-07T20:02:44.745Z,7.87
2019-05-07T20:05:13.091Z,7.53
2019-05-07T20:07:42.329Z,7.30
2019-05-07T20:10:12.136Z,7.27
2019-05-07T20:15:13.269Z,6.98
2019-05-07T20:17:41.987Z,6.85
2019-05-07T20:22:45.129Z,6.67
2019-05-07T20:27:48.616Z,6.53
2019-05-07T20:30:16.972Z,6.26
2019-05-07T20:32:46.325Z,6.09
2019-05-07T20:35:14.676Z,6.07
2019-05-07T20:37:43.010Z,6.08
2019-05-07T20:40:12.189Z,6.06
2019-05-07T20:42:43.124Z,6.14
2019-05-07T20:45:12.241Z,5.85
2019-05-07T20:47:42.142Z,5.70
2019-05-07T20:50:08.165Z,5.70
2019-05-07T20:52:41.865Z,5.65
2019-05-07T20:55:09.545Z,5.56
2019-05-07T20:57:42.798Z,5.77
2019-05-07T21:00:12.253Z,5.66
2019-05-07T21:02:45.435Z,5.59
2019-05-07T21:05:07.945Z,5.49
2019-05-07T21:07:36.287Z,5.74
2019-05-07T21:10:05.376Z,5.55
2019-05-07T21:12:37.252Z,5.41
2019-05-07T21:15:05.602Z,5.29
2019-05-07T21:17:33.925Z,5.17
2019-05-07T21:20:04.833Z,5.11
2019-05-07T21:22:34.158Z,5.00
2019-05-07T21:25:02.790Z,4.95
2019-05-07T21:27:34.495Z,4.88
2019-05-07T21:30:04.747Z,4.89
2019-05-07T21:32:38.899Z,4.81
2019-05-07T21:35:07.325Z,4.73
2019-05-07T21:37:41.866Z,4.62
2019-05-07T21:40:09.736Z,4.50
2019-05-07T21:42:39.033Z,4.52
2019-05-07T21:45:07.375Z,4.39
2019-05-07T21:47:35.710Z,4.29
2019-05-07T21:50:04.962Z,4.36
2019-05-07T21:52:33.301Z,4.21
2019-05-07T21:55:08.052Z,4.24
2019-05-07T21:57:41.256Z,4.26
2019-05-07T22:03:12.876Z,4.21
2019-05-07T22:05:52.266Z,4.24
2019-05-07T22:08:21.915Z,4.15
2019-05-07T22:11:04.398Z,4.15
2019-05-07T22:13:29.125Z,4.06
2019-05-07T22:15:57.473Z,4.08
2019-05-07T22:18:25.803Z,4.08
2019-05-07T22:23:28.334Z,4.16
2019-05-07T22:26:16.655Z,4.15
2019-05-07T22:28:32.018Z,4.05
2019-05-07T22:34:02.155Z,3.93
2019-05-07T22:36:28.665Z,3.88
2019-05-07T22:39:03.057Z,3.81
2019-05-07T22:41:31.948Z,3.77
2019-05-07T22:43:59.727Z,3.77
2019-05-07T22:49:03.297Z,3.68
2019-05-07T22:51:31.608Z,3.58
2019-05-07T22:54:03.902Z,3.55
2019-05-07T22:56:37.616Z,3.53
2019-05-07T22:59:04.068Z,3.43
2019-05-07T23:01:32.394Z,3.35
2019-05-07T23:06:37.957Z,3.29
2019-05-07T23:09:08.192Z,3.14
2019-05-07T23:11:37.470Z,3.05
2019-05-07T23:14:05.814Z,2.97
2019-05-07T23:16:43.052Z,2.91
2019-05-07T23:19:13.879Z,2.92
2019-05-07T23:21:38.913Z,2.90
2019-05-07T23:24:07.320Z,2.90
2019-05-07T23:26:47.250Z,3.02
2019-05-07T23:29:07.298Z,3.11
2019-05-07T23:31:36.534Z,3.10
2019-05-07T23:36:42.090Z,3.39
2019-05-07T23:41:42.570Z,3.78
2019-05-07T23:44:19.436Z,4.03
2019-05-07T23:46:47.780Z,4.03
2019-05-07T23:49:16.121Z,4.08
2019-05-07T23:51:44.453Z,4.23
2019-05-07T23:54:13.744Z,4.10
2019-05-07T23:56:42.786Z,4.28
2019-05-07T23:59:16.683Z,4.51
